createdAt,value
2018-04-29T00:01:51.388Z,100094.73
2018-04-29T00:04:20.618Z,100090.51
2018-04-29T00:06:49.774Z,100078.53
2018-04-29T00:09:18.973Z,100072.03
2018-04-29T00:11:49.128Z,100070.58
2018-04-29T00:14:18.313Z,100077.82
2018-04-29T00:16:48.267Z,100086.09
2018-04-29T00:19:17.451Z,100089.17
2018-04-29T00:21:46.636Z,100083.94
2018-04-29T00:24:15.825Z,100072.30
2018-04-29T00:26:45.746Z,100071.70
2018-04-29T00:29:14.906Z,100059.76
2018-04-29T00:31:44.079Z,100051.44
2018-04-29T00:34:13.223Z,100051.61
2018-04-29T00:36:43.147Z,100061.31
2018-04-29T00:39:13.066Z,100056.33
2018-04-29T00:41:42.217Z,100053.94
2018-04-29T00:44:11.460Z,100053.41
2018-04-29T00:46:40.624Z,100044.39
2018-04-29T00:49:10.581Z,100039.04
2018-04-29T00:51:57.566Z,100041.93
2018-04-29T00:54:26.700Z,100036.45
2018-04-29T00:56:55.958Z,100033.94
2018-04-29T00:59:25.109Z,100025.15
2018-04-29T01:01:54.271Z,100023.95
2018-04-29T01:04:24.258Z,100008.75
2018-04-29T01:06:53.394Z,100012.25
2018-04-29T01:09:22.575Z,100015.40
2018-04-29T01:11:52.663Z,100014.83
2018-04-29T01:14:22.326Z,100019.95
2018-04-29T01:16:51.550Z,100027.04
2018-04-29T01:19:20.721Z,100033.70
2018-04-29T01:21:49.909Z,100026.33
2018-04-29T01:24:19.825Z,100019.89
2018-04-29T01:26:48.999Z,100022.84
2018-04-29T01:29:18.185Z,100017.69
2018-04-29T01:31:47.922Z,100017.73
2018-04-29T01:34:17.284Z,100017.00
2018-04-29T01:36:47.174Z,100015.50
2018-04-29T01:39:16.301Z,100005.64
2018-04-29T01:41:46.185Z,100008.08
2018-04-29T01:44:15.354Z,100012.98
2018-04-29T01:46:44.515Z,100006.59
2018-04-29T01:49:14.395Z,100010.19
2018-04-29T01:51:43.574Z,100022.11
2018-04-29T01:54:13.401Z,100011.83
2018-04-29T01:56:42.516Z,100009.36
2018-04-29T01:59:11.644Z,99996.34
2018-04-29T02:01:40.789Z,99988.39
2018-04-29T02:04:09.901Z,99983.86
2018-04-29T02:06:39.009Z,99985.08
2018-04-29T02:09:08.891Z,99989.02
2018-04-29T02:11:38.025Z,99981.84
2018-04-29T02:14:07.918Z,99973.06
2018-04-29T02:16:37.011Z,99965.80
2018-04-29T02:19:06.123Z,99972.61
2018-04-29T02:21:35.236Z,99967.06
2018-04-29T02:24:05.234Z,99970.92
2018-04-29T02:26:34.456Z,99968.73
2018-04-29T02:29:03.576Z,99959.94
2018-04-29T02:31:32.703Z,99957.91
2018-04-29T02:34:01.839Z,99946.91
2018-04-29T02:36:31.815Z,99939.19
2018-04-29T02:39:01.025Z,99941.02
2018-04-29T02:41:30.950Z,99944.10
2018-04-29T02:44:00.058Z,99935.25
2018-04-29T02:46:29.925Z,99928.03
2018-04-29T02:48:59.044Z,99920.65
2018-04-29T02:51:28.147Z,99914.92
2018-04-29T02:53:57.243Z,99896.03
2018-04-29T02:56:26.358Z,99867.89
2018-04-29T02:58:56.685Z,99843.39
2018-04-29T03:01:26.574Z,99845.58
2018-04-29T03:03:55.687Z,99858.88
2018-04-29T03:06:25.582Z,99872.92
2018-04-29T03:08:54.674Z,99884.09
2018-04-29T03:11:23.800Z,99882.47
2018-04-29T03:13:53.818Z,99883.41
2018-04-29T03:16:22.960Z,99885.30
2018-04-29T03:18:52.853Z,99881.50
2018-04-29T03:21:22.519Z,99865.09
2018-04-29T03:23:51.624Z,99865.98
2018-04-29T03:26:20.730Z,99862.17
2018-04-29T03:28:50.618Z,99866.14
2018-04-29T03:31:19.738Z,99864.92
2018-04-29T03:33:49.645Z,99861.33
2018-04-29T03:36:18.789Z,99846.62
2018-04-29T03:38:47.888Z,99846.56
2018-04-29T03:41:17.017Z,99857.16
2018-04-29T03:43:46.134Z,99858.56
2018-04-29T03:46:15.264Z,99863.22
2018-04-29T03:48:44.368Z,99858.02
2018-04-29T03:51:13.504Z,99854.02
2018-04-29T03:53:42.690Z,99856.26
2018-04-29T03:56:11.885Z,99856.33
2018-04-29T03:58:58.739Z,99851.13
2018-04-29T04:01:51.288Z,99845.24
2018-04-29T04:04:14.793Z,99855.06
2018-04-29T04:06:43.921Z,99853.76
2018-04-29T04:09:13.040Z,99856.17
2018-04-29T04:11:43.069Z,99861.06
2018-04-29T04:14:12.371Z,99863.31
2018-04-29T04:16:42.260Z,99867.77
2018-04-29T04:19:11.351Z,99870.83
2018-04-29T04:21:41.154Z,99866.75
2018-04-29T04:24:11.064Z,99850.88
2018-04-29T04:26:40.180Z,99858.23
2018-04-29T04:29:09.278Z,99843.19
2018-04-29T04:31:38.445Z,99861.75
2018-04-29T04:34:07.627Z,99869.08
2018-04-29T04:36:36.698Z,99874.20
2018-04-29T04:39:05.844Z,99871.71
2018-04-29T04:41:34.975Z,99877.06
2018-04-29T04:44:04.878Z,99864.20
2018-04-29T04:46:34.230Z,99857.63
2018-04-29T04:49:03.398Z,99861.44
2018-04-29T04:51:33.280Z,99857.81
2018-04-29T04:54:02.400Z,99859.81
2018-04-29T04:56:32.330Z,99868.94
2018-04-29T04:59:02.458Z,99882.78
2018-04-29T05:01:31.991Z,99889.61
2018-04-29T05:04:01.174Z,99881.78
2018-04-29T05:06:30.288Z,99894.00
2018-04-29T05:08:59.436Z,99889.12
2018-04-29T05:11:29.308Z,99889.51
2018-04-29T05:13:58.413Z,99910.83
2018-04-29T05:16:27.549Z,99908.58
2018-04-29T05:18:56.839Z,99914.60
2018-04-29T05:21:26.737Z,99926.44
2018-04-29T05:23:56.617Z,99922.55
2018-04-29T05:26:25.716Z,99925.27
2018-04-29T05:28:55.607Z,99913.06
2018-04-29T05:31:24.705Z,99909.55
2018-04-29T05:33:54.592Z,99905.36
2018-04-29T05:36:24.455Z,99915.28
2018-04-29T05:38:53.667Z,99922.64
2018-04-29T05:41:23.675Z,99919.94
2018-04-29T05:43:52.808Z,99907.83
2018-04-29T05:46:23.631Z,99901.57
2018-04-29T05:48:52.751Z,99902.48
2018-04-29T05:51:22.897Z,99902.17
2018-04-29T05:53:52.790Z,99888.39
2018-04-29T05:56:23.710Z,99889.97
2018-04-29T05:58:52.819Z,99902.86
2018-04-29T06:01:23.717Z,99883.16
2018-04-29T06:03:53.646Z,99878.36
2018-04-29T06:06:23.756Z,99869.72
2018-04-29T06:08:52.875Z,99869.41
2018-04-29T06:11:23.780Z,99864.52
2018-04-29T06:13:53.804Z,99865.47
2018-04-29T06:16:23.769Z,99869.07
2018-04-29T06:18:53.637Z,99868.12
2018-04-29T06:21:22.928Z,99862.02
2018-04-29T06:23:52.053Z,99854.44
2018-04-29T06:26:21.945Z,99848.52
2018-04-29T06:28:51.106Z,99847.70
2018-04-29T06:31:20.218Z,99853.73
2018-04-29T06:33:49.325Z,99848.41
2018-04-29T06:36:18.422Z,99849.89
2018-04-29T06:38:47.545Z,99845.73
2018-04-29T06:41:16.672Z,99838.16
2018-04-29T06:43:46.537Z,99837.98
2018-04-29T06:46:15.664Z,99841.08
2018-04-29T06:48:44.785Z,99836.52
2018-04-29T06:51:13.901Z,99829.20
2018-04-29T06:53:42.996Z,99823.33
2018-04-29T06:56:12.381Z,99819.93
2018-04-29T06:58:41.527Z,99817.22
2018-04-29T07:01:10.638Z,99819.80
2018-04-29T07:03:39.753Z,99813.83
2018-04-29T07:06:08.896Z,99810.14
2018-04-29T07:08:38.025Z,99806.36
2018-04-29T07:11:07.157Z,99804.72
2018-04-29T07:13:37.018Z,99799.75
2018-04-29T07:16:06.169Z,99804.63
2018-04-29T07:18:35.312Z,99799.12
2018-04-29T07:21:04.414Z,99797.18
2018-04-29T07:23:33.536Z,99783.77
2018-04-29T07:26:02.733Z,99798.11
2018-04-29T07:28:31.871Z,99798.54
2018-04-29T07:31:00.921Z,99795.30
2018-04-29T07:33:30.069Z,99795.37
2018-04-29T07:35:59.215Z,99783.98
2018-04-29T07:38:28.345Z,99792.48
2018-04-29T07:40:57.442Z,99794.56
2018-04-29T07:43:26.590Z,99792.16
2018-04-29T07:45:55.701Z,99792.82
2018-04-29T07:48:24.849Z,99785.34
2018-04-29T07:50:53.959Z,99785.84
2018-04-29T07:53:24.233Z,99783.80
2018-04-29T07:55:54.745Z,99782.09
2018-04-29T07:58:23.881Z,99779.87
2018-04-29T08:00:53.054Z,99782.73
2018-04-29T08:03:23.969Z,99789.66
2018-04-29T08:05:53.207Z,99792.72
2018-04-29T08:08:23.168Z,99798.59
2018-04-29T08:10:52.294Z,99784.67
2018-04-29T08:13:21.414Z,99789.48
2018-04-29T08:15:51.303Z,99785.02
2018-04-29T08:18:20.416Z,99786.32
2018-04-29T08:20:50.296Z,99775.05
2018-04-29T08:23:19.409Z,99774.63
2018-04-29T08:25:48.547Z,99768.67
2018-04-29T08:28:17.653Z,99766.00
2018-04-29T08:30:47.537Z,99765.87
2018-04-29T08:33:17.416Z,99763.82
2018-04-29T08:35:46.558Z,99764.61
2018-04-29T08:38:16.445Z,99763.07
2018-04-29T08:40:45.543Z,99768.42
2018-04-29T08:43:14.670Z,99770.25
2018-04-29T08:45:43.796Z,99763.86
2018-04-29T08:48:12.957Z,99767.05
2018-04-29T08:50:42.833Z,99759.37
2018-04-29T08:53:11.966Z,99762.98
2018-04-29T08:55:41.846Z,99767.02
2018-04-29T08:58:10.997Z,99763.84
2018-04-29T09:00:40.128Z,99758.20
2018-04-29T09:03:09.232Z,99749.63
2018-04-29T09:05:38.400Z,99743.23
2018-04-29T09:08:07.829Z,99747.03
2018-04-29T09:10:36.963Z,99747.67
2018-04-29T09:13:06.864Z,99735.63
2018-04-29T09:15:36.765Z,99732.35
2018-04-29T09:18:05.919Z,99736.41
2018-04-29T09:20:35.026Z,99730.83
2018-04-29T09:23:04.137Z,99725.30
2018-04-29T09:25:33.234Z,99723.02
2018-04-29T09:28:02.684Z,99722.23
2018-04-29T09:30:31.805Z,99724.28
2018-04-29T09:33:00.934Z,99720.52
2018-04-29T09:35:30.741Z,99712.74
2018-04-29T09:38:00.633Z,99705.20
2018-04-29T09:40:29.768Z,99692.80
2018-04-29T09:42:58.925Z,99684.20
2018-04-29T09:45:28.052Z,99686.52
2018-04-29T09:47:57.197Z,99683.68
2018-04-29T09:50:27.085Z,99692.08
2018-04-29T09:52:56.203Z,99692.38
2018-04-29T09:55:26.159Z,99687.02
2018-04-29T09:57:55.225Z,99685.81
2018-04-29T10:00:26.975Z,99668.31
2018-04-29T10:03:01.728Z,99667.62
2018-04-29T10:05:30.850Z,99659.45
2018-04-29T10:07:59.943Z,99654.87
2018-04-29T10:10:29.106Z,99657.31
2018-04-29T10:12:58.229Z,99645.57
2018-04-29T10:15:27.362Z,99640.74
2018-04-29T10:17:56.472Z,99639.84
2018-04-29T10:20:26.365Z,99635.77
2018-04-29T10:22:55.498Z,99633.93
2018-04-29T10:25:24.616Z,99625.80
2018-04-29T10:27:53.759Z,99626.27
2018-04-29T10:30:23.464Z,99629.77
2018-04-29T10:32:52.654Z,99633.53
2018-04-29T10:35:23.682Z,99627.16
2018-04-29T10:37:52.792Z,99612.98
2018-04-29T10:40:21.938Z,99610.41
2018-04-29T10:42:51.060Z,99604.91
2018-04-29T10:45:20.199Z,99601.33
2018-04-29T10:47:49.331Z,99584.58
2018-04-29T10:50:18.440Z,99584.71
2018-04-29T10:52:47.572Z,99582.72
2018-04-29T10:55:16.681Z,99571.63
2018-04-29T10:57:45.824Z,99562.32
2018-04-29T11:00:14.955Z,99554.95
2018-04-29T11:02:44.859Z,99550.20
2018-04-29T11:05:14.013Z,99556.77
2018-04-29T11:07:43.921Z,99551.34
2018-04-29T11:10:13.809Z,99545.98
2018-04-29T11:12:43.053Z,99552.25
2018-04-29T11:15:12.153Z,99545.09
2018-04-29T11:17:41.265Z,99545.52
2018-04-29T11:20:10.376Z,99539.81
2018-04-29T11:22:39.508Z,99532.84
2018-04-29T11:25:09.381Z,99521.55
2018-04-29T11:27:38.502Z,99518.02
2018-04-29T11:30:07.614Z,99508.14
2018-04-29T11:32:37.497Z,99503.74
2018-04-29T11:35:06.647Z,99500.45
2018-04-29T11:37:35.787Z,99502.68
2018-04-29T11:40:04.941Z,99500.58
2018-04-29T11:42:34.045Z,99493.58
2018-04-29T11:45:03.193Z,99498.89
2018-04-29T11:47:32.338Z,99506.27
2018-04-29T11:50:01.472Z,99487.12
2018-04-29T11:52:30.567Z,99484.19
2018-04-29T11:54:59.709Z,99475.55
2018-04-29T11:57:28.840Z,99476.64
2018-04-29T11:59:58.208Z,99474.23
2018-04-29T12:02:28.135Z,99470.34
2018-04-29T12:04:58.014Z,99465.70
2018-04-29T12:07:27.150Z,99458.66
2018-04-29T12:09:56.255Z,99458.02
2018-04-29T12:12:25.349Z,99445.70
2018-04-29T12:14:54.536Z,99438.32
2018-04-29T12:17:24.401Z,99434.27
2018-04-29T12:19:53.510Z,99428.44
2018-04-29T12:22:23.672Z,99428.61
2018-04-29T12:24:53.547Z,99417.84
2018-04-29T12:27:23.665Z,99409.88
2018-04-29T12:29:52.767Z,99417.84
2018-04-29T12:32:21.882Z,99406.88
2018-04-29T12:34:52.374Z,99399.24
2018-04-29T12:37:21.497Z,99392.18
2018-04-29T12:39:51.470Z,99385.86
2018-04-29T12:42:21.391Z,99388.63
2018-04-29T12:44:51.307Z,99380.98
2018-04-29T12:47:20.411Z,99370.45
2018-04-29T12:49:49.534Z,99364.02
2018-04-29T12:52:19.490Z,99359.22
2018-04-29T12:54:49.082Z,99358.50
2018-04-29T12:57:18.216Z,99355.30
2018-04-29T12:59:47.324Z,99350.20
2018-04-29T13:02:16.441Z,99334.27
2018-04-29T13:04:45.566Z,99326.82
2018-04-29T13:07:14.718Z,99322.17
2018-04-29T13:09:43.840Z,99312.79
2018-04-29T13:12:12.956Z,99301.80
2018-04-29T13:14:42.861Z,99298.42
2018-04-29T13:17:11.969Z,99289.98
2018-04-29T13:19:41.843Z,99278.66
2018-04-29T13:22:10.983Z,99274.02
2018-04-29T13:24:40.134Z,99266.52
2018-04-29T13:27:09.245Z,99265.39
2018-04-29T13:29:38.419Z,99261.08
2018-04-29T13:32:07.535Z,99249.85
2018-04-29T13:34:36.677Z,99246.33
2018-04-29T13:37:05.789Z,99243.91
2018-04-29T13:39:34.873Z,99236.11
2018-04-29T13:42:04.027Z,99233.20
2018-04-29T13:44:33.115Z,99232.64
2018-04-29T13:47:02.229Z,99226.49
2018-04-29T13:49:32.116Z,99218.84
2018-04-29T13:52:01.245Z,99218.13
2018-04-29T13:54:31.112Z,99209.24
2018-04-29T13:57:00.238Z,99201.53
2018-04-29T13:59:29.339Z,99196.22
2018-04-29T14:01:59.243Z,99191.69
2018-04-29T14:04:29.124Z,99183.73
2018-04-29T14:06:58.254Z,99168.55
2018-04-29T14:09:27.368Z,99166.05
2018-04-29T14:11:57.266Z,99158.44
2018-04-29T14:14:26.394Z,99144.99
2018-04-29T14:16:55.512Z,99141.93
2018-04-29T14:19:24.637Z,99145.59
2018-04-29T14:21:53.777Z,99142.95
2018-04-29T14:24:23.835Z,99145.42
2018-04-29T14:26:52.939Z,99141.44
2018-04-29T14:29:22.084Z,99141.25
2018-04-29T14:31:51.955Z,99132.80
2018-04-29T14:34:21.063Z,99132.81
2018-04-29T14:36:50.188Z,99128.56
2018-04-29T14:39:20.078Z,99120.72
2018-04-29T14:41:49.201Z,99118.09
2018-04-29T14:44:19.095Z,99113.58
2018-04-29T14:46:48.225Z,99108.85
2018-04-29T14:49:17.396Z,99097.39
2018-04-29T14:51:46.447Z,99099.32
2018-04-29T14:54:16.355Z,99096.11
2018-04-29T14:56:45.441Z,99090.62
2018-04-29T14:59:14.574Z,99081.88
2018-04-29T15:01:43.713Z,99076.05
2018-04-29T15:04:13.617Z,99070.22
2018-04-29T15:06:42.766Z,99066.60
2018-04-29T15:09:11.892Z,99048.52
2018-04-29T15:11:41.035Z,99038.81
2018-04-29T15:14:10.158Z,99030.50
2018-04-29T15:16:39.274Z,99027.19
2018-04-29T15:19:08.399Z,99024.54
2018-04-29T15:21:37.524Z,99023.91
2018-04-29T15:24:06.676Z,99011.46
2018-04-29T15:26:35.758Z,99006.02
2018-04-29T15:29:04.884Z,98999.27
2018-04-29T15:31:34.778Z,98989.42
2018-04-29T15:34:03.896Z,98988.35
2018-04-29T15:36:33.778Z,98979.32
2018-04-29T15:39:02.933Z,98974.28
2018-04-29T15:41:32.054Z,98963.92
2018-04-29T15:44:01.176Z,98959.00
2018-04-29T15:46:30.352Z,98949.31
2018-04-29T15:49:00.204Z,98951.70
2018-04-29T15:51:29.345Z,98951.30
2018-04-29T15:53:58.461Z,98939.52
2018-04-29T15:56:27.574Z,98942.00
2018-04-29T15:58:56.672Z,98940.13
2018-04-29T16:01:25.799Z,98930.16
2018-04-29T16:03:55.687Z,98923.50
2018-04-29T16:06:24.795Z,98922.51
2018-04-29T16:08:55.175Z,98915.45
2018-04-29T16:11:24.280Z,98910.11
2018-04-29T16:13:53.423Z,98900.94
2018-04-29T16:16:22.548Z,98901.34
2018-04-29T16:18:51.636Z,98901.52
2018-04-29T16:21:20.764Z,98898.97
2018-04-29T16:23:50.713Z,98898.08
2018-04-29T16:26:19.801Z,98892.52
2018-04-29T16:28:48.941Z,98886.27
2018-04-29T16:31:18.059Z,98889.08
2018-04-29T16:33:47.192Z,98890.92
2018-04-29T16:36:16.417Z,98876.71
2018-04-29T16:38:45.493Z,98871.55
2018-04-29T16:41:14.617Z,98868.62
2018-04-29T16:43:44.498Z,98863.59
2018-04-29T16:46:13.608Z,98872.20
2018-04-29T16:48:43.529Z,98865.05
2018-04-29T16:51:13.429Z,98861.04
2018-04-29T16:53:42.554Z,98858.74
2018-04-29T16:56:12.672Z,98849.98
2018-04-29T16:58:41.823Z,98840.44
2018-04-29T17:01:11.019Z,98841.48
2018-04-29T17:03:40.860Z,98837.38
2018-04-29T17:06:10.002Z,98833.25
2018-04-29T17:08:39.162Z,98829.13
2018-04-29T17:11:09.095Z,98829.77
2018-04-29T17:13:38.974Z,98822.08
2018-04-29T17:16:08.144Z,98811.33
2018-04-29T17:18:38.043Z,98806.30
2018-04-29T17:21:07.189Z,98802.59
2018-04-29T17:23:36.305Z,98804.64
2018-04-29T17:26:06.190Z,98805.30
2018-04-29T17:28:35.647Z,98799.29
2018-04-29T17:31:04.774Z,98802.97
2018-04-29T17:33:33.906Z,98792.34
2018-04-29T17:36:03.058Z,98791.49
2018-04-29T17:38:32.182Z,98788.07
2018-04-29T17:41:01.333Z,98783.01
2018-04-29T17:43:30.475Z,98774.23
2018-04-29T17:45:59.590Z,98773.07
2018-04-29T17:48:28.721Z,98762.19
2018-04-29T17:50:57.847Z,98766.77
2018-04-29T17:53:27.010Z,98758.94
2018-04-29T17:55:56.134Z,98749.76
2018-04-29T17:58:25.300Z,98754.36
2018-04-29T18:00:54.443Z,98750.75
2018-04-29T18:03:24.402Z,98748.33
2018-04-29T18:05:54.303Z,98746.23
2018-04-29T18:08:24.362Z,98748.34
2018-04-29T18:10:53.486Z,98749.72
2018-04-29T18:13:22.616Z,98749.08
2018-04-29T18:15:52.544Z,98740.42
2018-04-29T18:18:22.425Z,98743.81
2018-04-29T18:20:51.566Z,98735.23
2018-04-29T18:23:20.679Z,98738.25
2018-04-29T18:25:49.841Z,98727.47
2018-04-29T18:28:20.075Z,98726.92
2018-04-29T18:30:49.990Z,98729.66
2018-04-29T18:33:19.911Z,98729.05
2018-04-29T18:35:49.029Z,98731.30
2018-04-29T18:38:18.156Z,98728.81
2018-04-29T18:40:47.325Z,98719.91
2018-04-29T18:43:16.452Z,98713.52
2018-04-29T18:45:45.587Z,98720.68
2018-04-29T18:48:14.716Z,98721.17
2018-04-29T18:50:44.070Z,98714.20
2018-04-29T18:53:13.886Z,98708.51
2018-04-29T18:55:43.810Z,98712.55
2018-04-29T18:58:15.243Z,98713.78
2018-04-29T19:00:45.125Z,98715.19
2018-04-29T19:03:14.265Z,98703.80
2018-04-29T19:05:48.027Z,98705.03
2018-04-29T19:08:17.165Z,98699.22
2018-04-29T19:10:47.081Z,98696.27
2018-04-29T19:13:16.214Z,98688.55
2018-04-29T19:15:45.949Z,98683.32
2018-04-29T19:18:15.095Z,98677.09
2018-04-29T19:20:44.974Z,98677.34
2018-04-29T19:23:14.125Z,98665.13
2018-04-29T19:25:43.263Z,98659.23
2018-04-29T19:28:12.413Z,98652.52
2018-04-29T19:30:42.500Z,98653.71
2018-04-29T19:33:11.612Z,98647.53
2018-04-29T19:35:41.538Z,98644.30
2018-04-29T19:38:10.659Z,98644.83
2018-04-29T19:40:39.780Z,98629.28
2018-04-29T19:43:08.954Z,98635.53
2018-04-29T19:45:38.104Z,98626.97
2018-04-29T19:48:07.212Z,98625.19
2018-04-29T19:50:37.116Z,98628.72
2018-04-29T19:53:06.989Z,98624.18
2018-04-29T19:55:36.158Z,98619.11
2018-04-29T19:58:05.253Z,98615.02
2018-04-29T20:00:34.424Z,98613.37
2018-04-29T20:03:04.322Z,98609.00
2018-04-29T20:05:33.489Z,98606.28
2018-04-29T20:08:02.631Z,98603.19
2018-04-29T20:10:31.794Z,98602.70
2018-04-29T20:13:00.978Z,98608.09
2018-04-29T20:15:30.117Z,98606.23
2018-04-29T20:17:59.252Z,98612.22
2018-04-29T20:20:28.364Z,98609.59
2018-04-29T20:22:57.542Z,98606.80
2018-04-29T20:25:26.692Z,98601.34
2018-04-29T20:27:55.826Z,98600.92
2018-04-29T20:30:25.734Z,98599.72
2018-04-29T20:32:55.632Z,98603.44
2018-04-29T20:35:24.764Z,98602.60
2018-04-29T20:37:54.109Z,98614.98
2018-04-29T20:40:24.487Z,98616.98
2018-04-29T20:42:53.637Z,98604.66
2018-04-29T20:45:22.732Z,98602.91
2018-04-29T20:47:51.876Z,98598.72
2018-04-29T20:50:21.773Z,98597.28
2018-04-29T20:52:51.660Z,98598.60
2018-04-29T20:55:21.157Z,98592.13
2018-04-29T20:57:50.273Z,98593.34
2018-04-29T21:00:19.381Z,98592.86
2018-04-29T21:02:49.279Z,98588.97
2018-04-29T21:05:19.187Z,98597.17
2018-04-29T21:07:48.321Z,98591.71
2018-04-29T21:10:18.256Z,98588.98
2018-04-29T21:12:47.381Z,98587.29
2018-04-29T21:15:16.481Z,98592.67
2018-04-29T21:17:46.396Z,98593.34
2018-04-29T21:20:15.517Z,98591.30
2018-04-29T21:22:44.625Z,98592.02
2018-04-29T21:25:14.519Z,98591.83
2018-04-29T21:27:43.672Z,98589.21
2018-04-29T21:30:12.797Z,98590.94
2018-04-29T21:32:42.707Z,98594.00
2018-04-29T21:35:11.847Z,98589.80
2018-04-29T21:37:40.975Z,98593.67
2018-04-29T21:40:10.127Z,98595.09
2018-04-29T21:42:39.232Z,98603.78
2018-04-29T21:45:09.136Z,98603.53
2018-04-29T21:47:38.257Z,98607.45
2018-04-29T21:50:08.148Z,98603.47
2018-04-29T21:52:37.241Z,98611.34
2018-04-29T21:55:06.357Z,98612.38
2018-04-29T21:57:36.266Z,98614.63
2018-04-29T22:00:06.208Z,98603.72
2018-04-29T22:02:35.315Z,98607.42
2018-04-29T22:05:04.449Z,98605.06
2018-04-29T22:07:33.581Z,98606.50
2018-04-29T22:10:02.706Z,98606.41
2018-04-29T22:12:31.829Z,98612.05
2018-04-29T22:15:00.954Z,98616.88
2018-04-29T22:17:30.862Z,98623.22
2018-04-29T22:19:59.960Z,98674.93
2018-04-29T22:22:29.835Z,98701.30
2018-04-29T22:24:58.984Z,98703.89
2018-04-29T22:27:28.862Z,98713.18
2018-04-29T22:29:57.970Z,98729.50
2018-04-29T22:32:27.321Z,98731.97
2018-04-29T22:34:56.461Z,98746.92
2018-04-29T22:37:25.631Z,98756.72
2018-04-29T22:39:54.754Z,98777.89
2018-04-29T22:42:24.842Z,98786.61
2018-04-29T22:44:53.952Z,98786.53
2018-04-29T22:47:23.072Z,98795.14
2018-04-29T22:49:52.196Z,98829.53
2018-04-29T22:52:22.077Z,98842.83
2018-04-29T22:54:51.188Z,98861.17
2018-04-29T22:57:20.331Z,98888.72
2018-04-29T22:59:49.480Z,98900.30
2018-04-29T23:02:18.596Z,98906.98
2018-04-29T23:04:48.500Z,98904.27
2018-04-29T23:07:17.616Z,98904.53
2018-04-29T23:09:47.472Z,98906.95
2018-04-29T23:12:16.593Z,98920.94
2018-04-29T23:14:45.688Z,98924.02
2018-04-29T23:17:14.808Z,98931.71
2018-04-29T23:19:44.706Z,98933.52
2018-04-29T23:22:13.812Z,98935.38
2018-04-29T23:24:43.696Z,98939.25
2018-04-29T23:27:12.816Z,98937.86
2018-04-29T23:29:41.902Z,98960.30
2018-04-29T23:32:10.997Z,98972.60
2018-04-29T23:34:40.884Z,98963.16
2018-04-29T23:37:09.980Z,98966.99
2018-04-29T23:39:39.101Z,98973.92
2018-04-29T23:42:08.207Z,98986.11
2018-04-29T23:44:37.496Z,98987.30
2018-04-29T23:47:06.607Z,98995.34
2018-04-29T23:49:35.722Z,98990.50
2018-04-29T23:52:05.606Z,99008.19
2018-04-29T23:54:34.733Z,99023.92
2018-04-29T23:57:04.620Z,99030.45
2018-04-29T23:59:33.745Z,99028.61
